createdAt,value
2022-09-11T00:01:58.579Z,13.21
2022-09-11T00:04:27.933Z,13.25
2022-09-11T00:06:57.101Z,13.26
2022-09-11T00:09:27.767Z,13.27
2022-09-11T00:11:57.809Z,13.27
2022-09-11T00:14:29.367Z,13.29
2022-09-11T00:16:59.443Z,13.30
2022-09-11T00:19:29.443Z,13.32
2022-09-11T00:21:58.928Z,13.33
2022-09-11T00:24:28.184Z,13.33
2022-09-11T00:26:58.123Z,13.34
2022-09-11T00:29:27.543Z,13.35
2022-09-11T00:31:57.570Z,13.35
2022-09-11T00:34:27.060Z,13.36
2022-09-11T00:36:57.963Z,13.36
2022-09-11T00:39:28.779Z,13.36
2022-09-11T00:41:58.142Z,13.36
2022-09-11T00:44:33.061Z,13.35
2022-09-11T00:47:04.768Z,13.36
2022-09-11T00:49:47.041Z,13.37
2022-09-11T00:52:35.822Z,13.37
2022-09-11T00:55:14.229Z,13.38
2022-09-11T00:57:50.396Z,13.36
2022-09-11T01:00:20.325Z,13.35
2022-09-11T01:02:50.153Z,13.30
2022-09-11T01:05:22.282Z,13.29
2022-09-11T01:07:54.201Z,13.28
2022-09-11T01:10:48.029Z,13.26
2022-09-11T01:13:37.865Z,13.25
2022-09-11T01:16:21.718Z,13.23
2022-09-11T01:19:20.214Z,13.23
2022-09-11T01:22:07.118Z,13.23
2022-09-11T01:25:02.129Z,13.23
2022-09-11T01:27:50.060Z,13.21
2022-09-11T01:30:28.376Z,13.21
2022-09-11T01:33:17.969Z,13.21
2022-09-11T01:36:06.535Z,13.22
2022-09-11T01:39:02.741Z,13.23
2022-09-11T01:41:58.958Z,13.24
2022-09-11T01:44:39.216Z,13.25
2022-09-11T01:47:10.705Z,13.26
2022-09-11T01:50:02.375Z,13.26
2022-09-11T01:52:35.913Z,13.27
2022-09-11T01:55:14.172Z,13.28
2022-09-11T01:57:56.819Z,13.29
2022-09-11T02:00:25.918Z,13.29
2022-09-11T02:03:06.294Z,13.32
2022-09-11T02:05:50.826Z,13.33
2022-09-11T02:08:27.483Z,13.36
2022-09-11T02:11:07.013Z,13.37
2022-09-11T02:14:10.154Z,13.39
2022-09-11T02:16:56.290Z,13.38
2022-09-11T02:19:28.076Z,13.40
2022-09-11T02:21:58.365Z,13.41
2022-09-11T02:24:27.412Z,13.42
2022-09-11T02:27:00.549Z,13.41
2022-09-11T02:29:32.082Z,13.43
2022-09-11T02:32:01.624Z,13.44
2022-09-11T02:34:37.445Z,13.43
2022-09-11T02:37:28.070Z,13.45
2022-09-11T02:40:26.818Z,13.47
2022-09-11T02:43:24.657Z,13.48
2022-09-11T02:46:28.195Z,13.49
2022-09-11T02:49:09.259Z,13.50
2022-09-11T02:52:06.861Z,13.51
2022-09-11T02:55:02.630Z,13.52
2022-09-11T02:57:40.790Z,13.55
2022-09-11T03:00:11.827Z,13.57
2022-09-11T03:02:43.193Z,13.60
2022-09-11T03:05:13.296Z,13.60
2022-09-11T03:07:44.429Z,13.62
2022-09-11T03:10:13.572Z,13.66
2022-09-11T03:12:43.432Z,13.68
2022-09-11T03:15:13.873Z,13.71
2022-09-11T03:17:45.102Z,13.75
2022-09-11T03:20:17.006Z,13.77
2022-09-11T03:22:47.935Z,13.81
2022-09-11T03:25:19.139Z,13.82
2022-09-11T03:27:49.440Z,13.84
2022-09-11T03:30:19.936Z,13.86
2022-09-11T03:32:52.152Z,13.89
2022-09-11T03:35:21.808Z,13.90
2022-09-11T03:37:51.766Z,13.91
2022-09-11T03:40:21.038Z,13.91
2022-09-11T03:42:50.611Z,13.92
2022-09-11T03:45:20.897Z,13.90
2022-09-11T03:47:50.186Z,13.87
2022-09-11T03:50:19.084Z,13.85
2022-09-11T03:52:49.924Z,13.77
2022-09-11T03:55:20.365Z,13.67
2022-09-11T03:57:49.984Z,13.56
2022-09-11T04:00:18.885Z,13.42
2022-09-11T04:02:51.094Z,13.30
2022-09-11T04:05:28.562Z,13.24
2022-09-11T04:07:59.313Z,13.18
2022-09-11T04:10:29.189Z,13.13
2022-09-11T04:13:01.468Z,13.09
2022-09-11T04:15:32.701Z,13.08
2022-09-11T04:18:05.687Z,13.06
2022-09-11T04:20:41.095Z,13.04
2022-09-11T04:23:11.130Z,13.03
2022-09-11T04:25:40.521Z,13.06
2022-09-11T04:28:11.172Z,13.04
2022-09-11T04:30:42.053Z,13.03
2022-09-11T04:33:12.773Z,13.06
2022-09-11T04:35:43.221Z,13.08
2022-09-11T04:38:13.717Z,13.12
2022-09-11T04:40:43.643Z,13.14
2022-09-11T04:43:13.420Z,13.12
2022-09-11T04:45:43.292Z,13.10
2022-09-11T04:48:12.666Z,13.10
2022-09-11T04:50:42.179Z,13.08
2022-09-11T04:53:19.268Z,13.10
2022-09-11T04:55:51.735Z,13.08
2022-09-11T04:58:22.859Z,13.10
2022-09-11T05:00:54.876Z,13.10
2022-09-11T05:03:24.421Z,13.09
2022-09-11T05:05:53.797Z,13.13
2022-09-11T05:08:26.548Z,13.13
2022-09-11T05:10:57.837Z,13.13
2022-09-11T05:13:35.608Z,13.14
2022-09-11T05:16:04.796Z,13.12
2022-09-11T05:18:35.727Z,13.12
2022-09-11T05:21:14.665Z,13.13
2022-09-11T05:23:53.142Z,13.11
2022-09-11T05:26:26.019Z,13.08
2022-09-11T05:28:57.824Z,13.04
2022-09-11T05:31:28.664Z,13.01
2022-09-11T05:34:00.236Z,12.99
2022-09-11T05:36:35.114Z,12.97
2022-09-11T05:39:05.933Z,12.98
2022-09-11T05:41:35.795Z,12.99
2022-09-11T05:44:05.802Z,13.01
2022-09-11T05:46:35.232Z,13.01
2022-09-11T05:49:05.325Z,13.01
2022-09-11T05:51:36.881Z,12.99
2022-09-11T05:54:07.975Z,13.01
2022-09-11T05:56:38.014Z,13.03
2022-09-11T05:59:17.434Z,13.04
2022-09-11T06:01:50.212Z,13.04
2022-09-11T06:04:39.379Z,13.01
2022-09-11T06:07:09.605Z,12.96
2022-09-11T06:09:40.765Z,12.93
2022-09-11T06:12:12.329Z,12.93
2022-09-11T06:14:44.331Z,12.93
2022-09-11T06:17:14.615Z,12.94
2022-09-11T06:19:43.371Z,12.95
2022-09-11T06:22:13.414Z,12.98
2022-09-11T06:24:44.705Z,13.01
2022-09-11T06:27:13.578Z,13.04
2022-09-11T06:29:45.203Z,13.08
2022-09-11T06:32:15.028Z,13.10
2022-09-11T06:34:44.072Z,13.13
2022-09-11T06:37:15.109Z,13.12
2022-09-11T06:39:44.422Z,13.13
2022-09-11T06:42:16.246Z,13.15
2022-09-11T06:44:50.143Z,13.18
2022-09-11T06:47:16.846Z,13.22
2022-09-11T06:49:46.671Z,13.28
2022-09-11T06:52:20.964Z,13.32
2022-09-11T06:54:55.430Z,13.36
2022-09-11T06:57:24.376Z,13.44
2022-09-11T06:59:53.283Z,13.50
2022-09-11T07:02:23.036Z,13.54
2022-09-11T07:04:53.220Z,13.61
2022-09-11T07:07:23.479Z,13.63
2022-09-11T07:09:52.955Z,13.68
2022-09-11T07:12:25.228Z,13.73
2022-09-11T07:14:54.822Z,13.74
2022-09-11T07:17:24.598Z,13.76
2022-09-11T07:19:53.830Z,13.79
2022-09-11T07:22:24.288Z,13.81
2022-09-11T07:24:55.909Z,13.83
2022-09-11T07:27:25.956Z,13.85
2022-09-11T07:29:55.634Z,13.83
2022-09-11T07:32:27.222Z,13.82
2022-09-11T07:34:56.846Z,13.81
2022-09-11T07:37:28.454Z,13.80
2022-09-11T07:39:59.643Z,13.79
2022-09-11T07:42:33.174Z,13.80
2022-09-11T07:45:02.931Z,13.76
2022-09-11T07:47:34.266Z,13.76
2022-09-11T07:50:04.522Z,13.75
2022-09-11T07:52:37.115Z,13.77
2022-09-11T07:55:08.565Z,13.80
2022-09-11T07:57:38.607Z,13.82
2022-09-11T08:00:11.487Z,13.83
2022-09-11T08:02:49.893Z,13.84
2022-09-11T08:05:20.826Z,13.84
2022-09-11T08:07:51.914Z,13.84
2022-09-11T08:10:27.591Z,13.85
2022-09-11T08:12:59.159Z,13.82
2022-09-11T08:15:26.693Z,13.77
2022-09-11T08:17:56.370Z,13.71
2022-09-11T08:20:26.618Z,13.71
2022-09-11T08:22:56.657Z,13.71
2022-09-11T08:25:28.467Z,13.72
2022-09-11T08:27:59.342Z,13.73
2022-09-11T08:30:29.103Z,13.77
2022-09-11T08:32:58.878Z,13.81
2022-09-11T08:35:29.852Z,13.89
2022-09-11T08:38:00.098Z,13.97
2022-09-11T08:40:31.173Z,14.01
2022-09-11T08:43:02.621Z,14.06
2022-09-11T08:45:35.826Z,14.11
2022-09-11T08:48:06.713Z,14.18
2022-09-11T08:50:40.423Z,14.22
2022-09-11T08:53:18.416Z,14.26
2022-09-11T08:55:57.918Z,14.26
2022-09-11T08:58:32.444Z,14.28
2022-09-11T09:01:23.908Z,14.26
2022-09-11T09:04:14.313Z,14.24
2022-09-11T09:06:52.921Z,14.21
2022-09-11T09:09:40.302Z,14.22
2022-09-11T09:12:42.423Z,14.24
2022-09-11T09:15:39.726Z,14.22
2022-09-11T09:18:17.171Z,14.19
2022-09-11T09:20:52.541Z,14.16
2022-09-11T09:23:26.017Z,14.15
2022-09-11T09:25:55.690Z,14.20
2022-09-11T09:28:31.835Z,14.23
2022-09-11T09:31:07.745Z,14.26
2022-09-11T09:33:41.911Z,14.33
2022-09-11T09:36:18.382Z,14.37
2022-09-11T09:38:48.525Z,14.40
2022-09-11T09:41:48.105Z,14.46
2022-09-11T09:44:25.691Z,14.49
2022-09-11T09:46:56.108Z,14.55
2022-09-11T09:49:33.511Z,14.61
2022-09-11T09:52:19.490Z,14.66
2022-09-11T09:55:05.326Z,14.68
2022-09-11T09:57:37.131Z,14.72
2022-09-11T10:00:15.971Z,14.73
2022-09-11T10:02:56.911Z,14.74
2022-09-11T10:05:41.192Z,14.78
2022-09-11T10:08:33.491Z,14.85
2022-09-11T10:11:08.005Z,14.90
2022-09-11T10:13:42.680Z,14.92
2022-09-11T10:16:27.589Z,14.97
2022-09-11T10:18:57.821Z,14.99
2022-09-11T10:21:30.110Z,15.01
2022-09-11T10:24:04.258Z,15.02
2022-09-11T10:26:45.444Z,15.04
2022-09-11T10:29:26.608Z,15.04
2022-09-11T10:31:59.682Z,15.04
2022-09-11T10:34:37.128Z,15.07
2022-09-11T10:37:17.408Z,15.08
2022-09-11T10:39:47.357Z,15.07
2022-09-11T10:42:23.223Z,15.08
2022-09-11T10:44:53.267Z,15.08
2022-09-11T10:47:30.837Z,15.05
2022-09-11T10:50:25.133Z,15.10
2022-09-11T10:53:17.883Z,15.12
2022-09-11T10:55:59.998Z,15.13
2022-09-11T10:58:33.380Z,15.15
2022-09-11T11:01:03.224Z,15.17
2022-09-11T11:03:32.975Z,15.18
2022-09-11T11:06:19.769Z,15.20
2022-09-11T11:08:58.472Z,15.22
2022-09-11T11:11:40.330Z,15.27
2022-09-11T11:14:49.667Z,15.33
2022-09-11T11:17:41.716Z,15.41
2022-09-11T11:20:52.547Z,15.49
2022-09-11T11:24:07.837Z,15.52
2022-09-11T11:27:23.962Z,15.61
2022-09-11T11:30:14.876Z,15.66
2022-09-11T11:33:26.296Z,15.69
2022-09-11T11:36:15.132Z,15.69
2022-09-11T11:39:04.102Z,15.72
2022-09-11T11:41:37.888Z,15.74
2022-09-11T11:44:10.407Z,15.79
2022-09-11T11:46:44.480Z,15.79
2022-09-11T11:49:19.668Z,15.79
2022-09-11T11:51:54.252Z,15.74
2022-09-11T11:54:35.418Z,15.77
2022-09-11T11:57:11.540Z,15.82
2022-09-11T11:59:53.110Z,15.85
2022-09-11T12:02:31.931Z,15.84
2022-09-11T12:05:23.960Z,15.81
2022-09-11T12:07:53.189Z,15.79
2022-09-11T12:10:36.004Z,15.80
2022-09-11T12:13:08.645Z,15.83
2022-09-11T12:15:39.102Z,15.83
2022-09-11T12:18:13.420Z,15.87
2022-09-11T12:20:45.828Z,15.87
2022-09-11T12:23:35.275Z,15.84
2022-09-11T12:26:19.954Z,15.80
2022-09-11T12:28:50.438Z,15.78
2022-09-11T12:31:19.672Z,15.77
2022-09-11T12:33:53.970Z,15.74
2022-09-11T12:36:37.158Z,15.73
2022-09-11T12:39:23.845Z,15.71
2022-09-11T12:41:53.430Z,15.71
2022-09-11T12:44:36.200Z,15.70
2022-09-11T12:47:07.665Z,15.73
2022-09-11T12:49:38.676Z,15.74
2022-09-11T12:52:13.837Z,15.75
2022-09-11T12:54:44.259Z,15.73
2022-09-11T12:57:20.459Z,15.73
2022-09-11T12:59:56.180Z,15.73
2022-09-11T13:02:43.385Z,15.73
2022-09-11T13:05:23.035Z,15.77
2022-09-11T13:07:59.460Z,15.84
2022-09-11T13:10:36.889Z,15.94
2022-09-11T13:13:43.380Z,16.00
2022-09-11T13:16:28.950Z,16.01
2022-09-11T13:19:12.293Z,16.02
2022-09-11T13:21:42.674Z,16.05
2022-09-11T13:24:34.284Z,16.04
2022-09-11T13:27:11.246Z,16.07
2022-09-11T13:29:42.871Z,16.09
2022-09-11T13:32:14.514Z,16.13
2022-09-11T13:34:46.569Z,16.20
2022-09-11T13:37:31.815Z,16.28
2022-09-11T13:40:04.461Z,16.34
2022-09-11T13:42:35.261Z,16.35
2022-09-11T13:45:06.511Z,16.38
2022-09-11T13:47:40.610Z,16.36
2022-09-11T13:50:15.040Z,16.34
2022-09-11T13:52:45.354Z,16.28
2022-09-11T13:55:26.845Z,16.24
2022-09-11T13:58:03.439Z,16.18
2022-09-11T14:00:42.079Z,16.15
2022-09-11T14:03:28.424Z,16.14
2022-09-11T14:06:00.897Z,16.10
2022-09-11T14:08:41.006Z,16.07
2022-09-11T14:11:14.608Z,16.04
2022-09-11T14:13:56.315Z,16.05
2022-09-11T14:16:31.120Z,16.05
2022-09-11T14:19:24.260Z,16.03
2022-09-11T14:21:54.020Z,15.99
2022-09-11T14:24:37.035Z,15.97
2022-09-11T14:27:34.135Z,15.95
2022-09-11T14:30:24.655Z,15.91
2022-09-11T14:33:19.179Z,15.89
2022-09-11T14:35:50.119Z,15.92
2022-09-11T14:38:21.082Z,15.95
2022-09-11T14:40:58.253Z,15.98
2022-09-11T14:43:32.523Z,16.01
2022-09-11T14:46:02.148Z,16.03
2022-09-11T14:48:33.388Z,16.03
2022-09-11T14:51:09.899Z,16.04
2022-09-11T14:53:37.093Z,16.05
2022-09-11T14:56:06.750Z,16.07
2022-09-11T14:58:35.621Z,16.09
2022-09-11T15:01:05.563Z,16.10
2022-09-11T15:03:36.397Z,16.09
2022-09-11T15:06:06.176Z,16.07
2022-09-11T15:08:39.378Z,16.05
2022-09-11T15:11:09.119Z,16.06
2022-09-11T15:13:57.860Z,16.05
2022-09-11T15:16:13.381Z,16.01
2022-09-11T15:18:44.563Z,16.00
2022-09-11T15:21:14.307Z,15.97
2022-09-11T15:23:45.548Z,15.93
2022-09-11T15:26:15.833Z,15.87
2022-09-11T15:28:47.257Z,15.84
2022-09-11T15:31:18.269Z,15.79
2022-09-11T15:33:54.158Z,15.74
2022-09-11T15:36:23.031Z,15.67
2022-09-11T15:38:54.897Z,15.64
2022-09-11T15:41:29.632Z,15.59
2022-09-11T15:43:59.589Z,15.58
2022-09-11T15:46:29.760Z,15.52
2022-09-11T15:49:00.255Z,15.49
2022-09-11T15:51:29.514Z,15.46
2022-09-11T15:54:06.871Z,15.44
2022-09-11T15:56:36.296Z,15.41
2022-09-11T15:59:07.292Z,15.37
2022-09-11T16:01:37.785Z,15.37
2022-09-11T16:04:10.728Z,15.31
2022-09-11T16:06:44.244Z,15.28
2022-09-11T16:09:23.244Z,15.23
2022-09-11T16:11:54.393Z,15.20
2022-09-11T16:14:28.531Z,15.18
2022-09-11T16:16:58.643Z,15.17
2022-09-11T16:19:28.673Z,15.16
2022-09-11T16:22:00.738Z,15.13
2022-09-11T16:24:30.493Z,15.10
2022-09-11T16:27:01.507Z,15.03
2022-09-11T16:29:51.150Z,14.96
2022-09-11T16:32:02.577Z,14.90
2022-09-11T16:34:33.351Z,14.85
2022-09-11T16:37:03.017Z,14.80
2022-09-11T16:39:33.744Z,14.74
2022-09-11T16:42:02.908Z,14.68
2022-09-11T16:44:33.934Z,14.67
2022-09-11T16:47:04.092Z,14.64
2022-09-11T16:49:50.506Z,14.56
2022-09-11T16:52:07.159Z,14.56
2022-09-11T16:54:39.204Z,14.56
2022-09-11T16:57:08.829Z,14.54
2022-09-11T16:59:39.315Z,14.54
2022-09-11T17:02:10.601Z,14.54
2022-09-11T17:04:40.280Z,14.52
2022-09-11T17:07:10.185Z,14.48
2022-09-11T17:09:40.719Z,14.46
2022-09-11T17:12:10.361Z,14.44
2022-09-11T17:14:40.193Z,14.46
2022-09-11T17:17:09.237Z,14.42
2022-09-11T17:19:38.756Z,14.40
2022-09-11T17:22:09.374Z,14.37
2022-09-11T17:24:40.584Z,14.33
2022-09-11T17:27:10.418Z,14.27
2022-09-11T17:29:44.293Z,14.21
2022-09-11T17:32:27.408Z,14.19
2022-09-11T17:34:46.777Z,14.17
2022-09-11T17:37:17.022Z,14.12
2022-09-11T17:39:46.713Z,14.05
2022-09-11T17:42:15.954Z,14.00
2022-09-11T17:44:47.893Z,13.94
2022-09-11T17:47:17.238Z,13.92
2022-09-11T17:49:46.619Z,13.87
2022-09-11T17:52:16.739Z,13.85
2022-09-11T17:54:46.299Z,13.82
2022-09-11T17:57:15.846Z,13.81
2022-09-11T17:59:46.749Z,13.80
2022-09-11T18:02:17.916Z,13.82
2022-09-11T18:04:50.422Z,13.81
2022-09-11T18:07:20.989Z,13.81
2022-09-11T18:09:56.065Z,13.80
2022-09-11T18:12:25.073Z,13.81
2022-09-11T18:14:56.786Z,13.80
2022-09-11T18:17:26.469Z,13.80
2022-09-11T18:19:55.973Z,13.78
2022-09-11T18:22:25.188Z,13.79
2022-09-11T18:24:55.137Z,13.80
2022-09-11T18:27:23.999Z,13.78
2022-09-11T18:29:54.303Z,13.76
2022-09-11T18:32:23.461Z,13.79
2022-09-11T18:34:52.587Z,13.79
2022-09-11T18:37:22.128Z,13.75
2022-09-11T18:39:51.337Z,13.70
2022-09-11T18:42:20.819Z,13.67
2022-09-11T18:44:50.771Z,13.67
2022-09-11T18:47:20.483Z,13.66
2022-09-11T18:49:51.241Z,13.68
2022-09-11T18:52:26.034Z,13.70
2022-09-11T18:54:54.859Z,13.69
2022-09-11T18:57:25.466Z,13.66
2022-09-11T18:59:55.686Z,13.64
2022-09-11T19:02:25.727Z,13.61
2022-09-11T19:04:56.239Z,13.59
2022-09-11T19:07:25.860Z,13.58
2022-09-11T19:09:55.188Z,13.58
2022-09-11T19:12:25.944Z,13.56
2022-09-11T19:14:57.288Z,13.56
2022-09-11T19:17:27.407Z,13.56
2022-09-11T19:19:56.938Z,13.57
2022-09-11T19:22:27.895Z,13.60
2022-09-11T19:24:59.760Z,13.66
2022-09-11T19:27:31.376Z,13.67
2022-09-11T19:30:02.627Z,13.68
2022-09-11T19:32:32.804Z,13.66
2022-09-11T19:35:03.856Z,13.62
2022-09-11T19:37:33.518Z,13.62
2022-09-11T19:40:04.218Z,13.60
2022-09-11T19:42:34.233Z,13.59
2022-09-11T19:45:05.592Z,13.58
2022-09-11T19:47:35.976Z,13.56
2022-09-11T19:50:07.985Z,13.54
2022-09-11T19:52:38.751Z,13.53
2022-09-11T19:55:09.066Z,13.53
2022-09-11T19:57:40.174Z,13.52
2022-09-11T20:00:10.665Z,13.54
2022-09-11T20:02:39.891Z,13.53
2022-09-11T20:05:10.937Z,13.52
2022-09-11T20:07:40.877Z,13.54
2022-09-11T20:10:10.325Z,13.53
2022-09-11T20:12:41.645Z,13.49
2022-09-11T20:15:12.755Z,13.48
2022-09-11T20:17:43.620Z,13.48
2022-09-11T20:20:13.323Z,13.49
2022-09-11T20:22:42.934Z,13.50
2022-09-11T20:25:12.341Z,13.52
2022-09-11T20:27:41.656Z,13.50
2022-09-11T20:30:12.321Z,13.47
2022-09-11T20:32:41.394Z,13.47
2022-09-11T20:35:10.223Z,13.49
2022-09-11T20:37:40.136Z,13.48
2022-09-11T20:40:11.330Z,13.48
2022-09-11T20:42:40.697Z,13.47
2022-09-11T20:45:10.268Z,13.48
2022-09-11T20:47:40.459Z,13.49
2022-09-11T20:50:10.297Z,13.51
2022-09-11T20:52:42.888Z,13.52
2022-09-11T20:55:11.762Z,13.52
2022-09-11T20:57:40.740Z,13.52
2022-09-11T21:00:11.227Z,13.55
2022-09-11T21:02:40.640Z,13.55
2022-09-11T21:05:10.897Z,13.55
2022-09-11T21:07:39.985Z,13.54
2022-09-11T21:10:10.055Z,13.53
2022-09-11T21:12:40.267Z,13.53
2022-09-11T21:15:10.647Z,13.54
2022-09-11T21:17:40.364Z,13.54
2022-09-11T21:20:10.121Z,13.54
2022-09-11T21:22:41.492Z,13.53
2022-09-11T21:25:10.818Z,13.54
2022-09-11T21:27:39.884Z,13.56
2022-09-11T21:30:10.330Z,13.58
2022-09-11T21:32:40.477Z,13.58
2022-09-11T21:35:10.133Z,13.58
2022-09-11T21:37:39.062Z,13.57
2022-09-11T21:40:09.552Z,13.59
2022-09-11T21:42:42.004Z,13.59
2022-09-11T21:45:11.931Z,13.60
2022-09-11T21:47:43.404Z,13.60
2022-09-11T21:50:12.268Z,13.60
2022-09-11T21:52:42.237Z,13.60
2022-09-11T21:55:11.087Z,13.62
2022-09-11T21:57:40.296Z,13.62
2022-09-11T22:00:12.133Z,13.65
2022-09-11T22:02:41.110Z,13.67
2022-09-11T22:05:11.024Z,13.69
2022-09-11T22:07:41.037Z,13.73
2022-09-11T22:10:10.386Z,13.74
2022-09-11T22:12:39.619Z,13.75
2022-09-11T22:15:11.308Z,13.76
2022-09-11T22:17:41.565Z,13.76
2022-09-11T22:20:10.551Z,13.78
2022-09-11T22:22:40.031Z,13.78
2022-09-11T22:25:10.152Z,13.79
2022-09-11T22:27:40.016Z,13.81
2022-09-11T22:30:10.561Z,13.82
2022-09-11T22:32:41.276Z,13.84
2022-09-11T22:35:10.578Z,13.84
2022-09-11T22:37:40.322Z,13.83
2022-09-11T22:40:10.824Z,13.81
2022-09-11T22:42:40.808Z,13.84
2022-09-11T22:45:10.744Z,13.85
2022-09-11T22:47:40.638Z,13.84
2022-09-11T22:50:10.603Z,13.84
2022-09-11T22:52:39.856Z,13.84
2022-09-11T22:55:10.849Z,13.86
2022-09-11T22:57:40.754Z,13.88
2022-09-11T23:00:11.963Z,13.88
2022-09-11T23:02:41.862Z,13.90
2022-09-11T23:05:29.285Z,13.90
2022-09-11T23:07:59.356Z,13.93
2022-09-11T23:10:28.358Z,13.93
2022-09-11T23:12:57.848Z,13.92
2022-09-11T23:15:27.793Z,13.93
2022-09-11T23:17:57.705Z,13.94
2022-09-11T23:20:26.688Z,13.96
2022-09-11T23:22:57.430Z,13.99
2022-09-11T23:25:26.417Z,13.97
2022-09-11T23:27:55.385Z,13.98
2022-09-11T23:30:25.123Z,13.98
2022-09-11T23:32:54.563Z,13.98
2022-09-11T23:35:25.565Z,14.00
2022-09-11T23:37:55.213Z,14.01
2022-09-11T23:40:25.301Z,14.00
2022-09-11T23:42:55.152Z,14.00
2022-09-11T23:45:23.895Z,14.03
2022-09-11T23:47:53.593Z,14.03
2022-09-11T23:50:23.642Z,14.04
2022-09-11T23:52:53.612Z,14.06
2022-09-11T23:55:24.160Z,14.07
2022-09-11T23:57:56.313Z,14.11
